NEODyS-2

Near Earth Objects - Dynamic Site
NEODyS ∴ Observatories ∴ Site 691 ∴ Obs & residuals
Contact »
691  ▹ 
OBSERVATIONS AND RESIDUALS

691-Steward Observatory, Kitt Peak-Spacewatch

Detections | Residuals | Detections & Residuals

[1-200] [201-400] [401-600] [601-800] [801-1000] [1001-1200] [1201-1400] [1401-1600] [1601-1800] [1801-2000] [2001-2200] [2201-2400] [2401-2600] [2601-2800] [2801-3000] [3001-3200] [3201-3400] [3401-3600] [3601-3800] [3801-4000] [4001-4200] [4201-4400] [4401-4600] [4601-4800] [4801-5000] [5001-5200] [5201-5400] [5401-5600] [5601-5800] [5801-6000] [6001-6200] [6201-6400] [6401-6600] [6601-6800] [6801-7000] [7001-7200] [7201-7400] [7401-7600] [7601-7800] [7801-8000] [8001-8200] [8201-8400] [8401-8600] [8601-8800] [8801-9000] [9001-9200] [9201-9400] [9401-9600] [9601-9800] [9801-10000] [10001-10200] [10201-10400] [10401-10600] [10601-10800] [10801-11000] [11001-11200] [11201-11400] [11401-11600] [11601-11800] [11801-12000] [12001-12200] [12201-12400] [12401-12600] [12601-12800] [12801-13000] [13001-13200] [13201-13400] [13401-13600] [13601-13800] [13801-14000] [14001-14200] [14201-14400] [14401-14600] [14601-14800] [14801-15000] [15001-15200] [15201-15400] [15401-15600] [15601-15800] [15801-16000] [16001-16200] [16201-16400] [16401-16600] [16601-16800] [16801-17000] [17001-17200] [17201-17400] [17401-17600] [17601-17800] [17801-18000] [18001-18200] [18201-18400] [18401-18600] [18601-18800] [18801-19000] [19001-19200] [19201-19400] [19401-19600] [19601-19800] [19801-20000] [20001-20200] [20201-20400] [20401-20600] [20601-20800] [20801-21000] [21001-21200] [21201-21400] [21401-21600] [21601-21800] [21801-22000] [22001-22200] [22201-22400] [22401-22600] [22601-22800] [22801-23000] [23001-23200] [23201-23400] [23401-23600] [23601-23800] [23801-24000] [24001-24200] [24201-24400] [24401-24600] [24601-24800] [24801-25000] [25001-25200] [25201-25400] [25401-25600] [25601-25800] [25801-26000] [26001-26200] [26201-26400] [26401-26600] [26601-26800] [26801-27000] [27001-27200] [27201-27400] [27401-27600] [27601-27800] [27801-28000] [28001-28200] [28201-28400] [28401-28600] [28601-28800] [28801-29000] [29001-29200] [29201-29400] [29401-29600] [29601-29800] [29801-30000] [30001-30200] [30201-30400] [30401-30600] [30601-30800] [30801-31000] [31001-31200] [31201-31400] [31401-31600] [31601-31800] [31801-32000] [32001-32200] [32201-32400] [32401-32600] [32601-32800] [32801-33000] [33001-33200] [33201-33400] [33401-33600] [33601-33800] [33801-34000] [34001-34200] [34201-34400] [34401-34600] [34601-34800] [34801-35000] [35001-35200] [35201-35400] [35401-35600] [35601-35800] [35801-36000] [36001-36200] [36201-36400] [36401-36600] [36601-36800] [36801-37000] [37001-37200] [37201-37400] [37401-37600] [37601-37800] [37801-38000] [38001-38200] [38201-38400] [38401-38600] [38601-38800] [38801-39000] [39001-39200] [39201-39400] [39401-39600] [39601-39800] [39801-40000] [40001-40200] [40201-40400] [40401-40600] [40601-40800] [40801-41000] [41001-41200] [41201-41400] [41401-41600] [41601-41800] [41801-42000] [42001-42200] [42201-42400] [42401-42600] [42601-42800] [42801-43000] [43001-43200] [43201-43400] [43401-43600] [43601-43800] [43801-44000] [44001-44200] [44201-44400] [44401-44600] [44601-44800] [44801-45000] [45001-45200] [45201-45400] [45401-45600] [45601-45800] [45801-46000] [46001-46200] [46201-46400] [46401-46600] [46601-46800] [46801-47000] [47001-47200] [47201-47400] [47401-47600] [47601-47800] [47801-48000] [48001-48200] [48201-48400] [48401-48600] [48601-48800] [48801-49000] [49001-49200] [49201-49400] [49401-49600] [49601-49800] [49801-50000] [50001-50200] [50201-50388]

Designation T Tech N Date Right Ascension Declination Apparent Magnitude Star Catalog Site code χ Used A Used M
yr-mo-day precision hr:min:sec precision rms F bias residual deg min sec precision rms F bias residual mag/col rms residual
2017HT2 O C K 2017-06-13.18911 1.000E-05 12:28:44.970 1.500E-01 0.500 F 0.114 0.554 +17° 18' 47.50" 1.000E-01 0.500 F 0.252 -0.452 21.4 R 0.70 -0.01 o 691 1.46 Yes Yes
2017FQ64 O C K 2017-06-13.19466 1.000E-05 10:49:41.020 1.500E-01 0.500 F 0.192 0.074 +07° 25' 15.60" 1.000E-01 0.500 F 0.242 -0.493 20.4 R 0.70 -0.22 o 691 1.02 Yes Yes
2017FP64 O C K 2017-06-13.19799 1.000E-05 12:01:00.530 1.500E-01 0.500 F 0.091 0.100 +15° 50' 28.20" 1.000E-01 0.500 F 0.225 0.098 20.6 R 0.70 0.06 o 691 0.28 Yes Yes
2017HT2 O C K 2017-06-13.20156 1.000E-05 12:28:45.050 1.500E-01 0.500 F 0.114 -0.858 +17° 18' 40.20" 1.000E-01 0.500 F 0.252 0.615 21.3 R 0.70 -0.11 o 691 2.17 Yes Yes
2017BL6 O C K 2017-06-13.23554 1.000E-05 12:18:01.600 1.500E-01 0.500 F -0.003 -0.243 -13° 23' 23.00" 1.000E-01 0.500 F -0.005 -0.550 o 691 1.21 Yes No
2017BL6 O C K 2017-06-13.24141 1.000E-05 12:18:03.690 1.500E-01 0.500 F -0.003 0.018 -13° 23' 21.50" 1.000E-01 0.500 F -0.005 -0.251 o 691 0.51 Yes No
2017BL6 O C K 2017-06-13.24727 1.000E-05 12:18:05.790 1.500E-01 0.500 F -0.003 0.446 -13° 23' 20.10" 1.000E-01 0.500 F -0.005 -0.056 o 691 0.91 Yes No
2000SB8 O C K 2017-06-14.20601 1.000E-05 15:51:02.770 1.500E-01 0.500 F 0.178 0.057 -29° 17' 22.20" 1.000E-01 0.500 F 0.202 0.044 o 691 0.15 Yes No
2000SB8 O C K 2017-06-14.21011 1.000E-05 15:51:02.350 1.500E-01 0.500 F 0.178 -0.199 -29° 17' 23.10" 1.000E-01 0.500 F 0.202 -0.691 o 691 1.47 Yes No
2000SB8 O C K 2017-06-14.21421 1.000E-05 15:51:01.950 1.500E-01 0.500 F 0.178 -0.192 -29° 17' 21.70" 1.000E-01 0.500 F 0.202 0.871 o 691 1.87 Yes No
2004KB O C K 2017-06-14.21939 1.000E-05 16:40:20.950 1.500E-01 0.500 F 0.249 0.054 +09° 21' 32.80" 1.000E-01 0.500 F 0.081 0.248 19.6 R 0.70 -1.25 o 691 0.49 Yes Yes
2004KB O C K 2017-06-14.22422 1.000E-05 16:40:20.300 1.500E-01 0.500 F 0.249 -0.878 +09° 21' 36.90" 1.000E-01 0.500 F 0.081 -0.290 19.5 R 0.70 -1.35 o 691 1.95 Yes Yes
2004KB O C K 2017-06-14.22905 1.000E-05 16:40:19.750 1.500E-01 0.500 F 0.249 -0.327 +09° 21' 42.00" 1.000E-01 0.500 F 0.081 0.175 19.7 R 0.70 -1.15 o 691 0.78 Yes Yes
1998HD14 O C K 2017-06-14.29450 1.000E-05 17:44:20.720 1.500E-01 0.612 F 0.032 0.166 +12° 03' 35.80" 1.000E-01 0.612 F 0.202 -0.433 o 691 0.76 Yes No
1998HD14 O C K 2017-06-14.29720 1.000E-05 17:44:20.140 1.500E-01 0.612 F 0.032 0.166 +12° 03' 37.40" 1.000E-01 0.612 F 0.202 0.068 o 691 0.29 Yes No
1998HD14 O C K 2017-06-14.29989 1.000E-05 17:44:19.550 1.500E-01 0.612 F 0.032 -0.011 +12° 03' 39.30" 1.000E-01 0.612 F 0.202 0.875 o 691 1.43 Yes No
1998HD14 O C K 2017-06-14.30279 1.000E-05 17:44:18.930 1.500E-01 0.612 F 0.032 0.034 +12° 03' 39.30" 1.000E-01 0.612 F 0.202 -0.301 19.5 R 0.70 -0.12 o 691 0.50 Yes Yes
1998HD14 O C K 2017-06-14.30548 1.000E-05 17:44:18.350 1.500E-01 0.612 F 0.032 0.006 +12° 03' 41.00" 1.000E-01 0.612 F 0.202 0.310 19.1 R 0.70 -0.52 o 691 0.51 Yes Yes
1998HD14 O C K 2017-06-14.30817 1.000E-05 17:44:17.800 1.500E-01 0.612 F 0.032 0.418 +12° 03' 41.40" 1.000E-01 0.612 F 0.202 -0.376 19.4 R 0.70 -0.22 o 691 0.92 Yes Yes
2017LW O C K 2017-06-14.35424 1.000E-05 16:58:47.900 1.500E-01 0.500 F -0.039 0.426 -12° 58' 44.30" 1.000E-01 0.500 F 0.241 0.051 o 691 0.88 Yes No
2017LW O C K 2017-06-14.36485 1.000E-05 16:58:52.110 1.500E-01 0.500 F -0.039 0.474 -12° 57' 33.20" 1.000E-01 0.500 F 0.241 -0.041 o 691 0.97 Yes No
2017LW O C K 2017-06-14.37544 1.000E-05 16:58:56.390 1.500E-01 0.500 F -0.039 1.287 -12° 56' 20.60" 1.000E-01 0.500 F 0.241 1.321 o 691 3.61 No No
2017KQ34 O C K 2017-06-15.19193 1.000E-05 15:54:55.860 1.500E-01 0.500 F 0.098 0.258 -07° 50' 38.70" 1.000E-01 0.500 F 0.206 -0.206 o 691 0.72 Yes No
2017KQ34 O C K 2017-06-15.19979 1.000E-05 15:54:54.550 1.500E-01 0.500 F 0.098 0.026 -07° 50' 46.60" 1.000E-01 0.500 F 0.206 0.295 o 691 0.63 Yes No
2017KQ34 O C K 2017-06-15.20764 1.000E-05 15:54:53.260 1.500E-01 0.500 F 0.098 0.066 -07° 50' 55.20" 1.000E-01 0.500 F 0.206 0.083 o 691 0.22 Yes No
2014UJ192 O C K 2017-06-15.23065 1.000E-05 16:06:27.700 1.500E-01 0.500 F 0.137 0.064 +05° 35' 17.50" 1.000E-01 0.500 F 0.181 -0.446 o 691 0.96 Yes No
2017KP31 O C K 2017-06-15.23376 1.000E-05 15:46:56.110 1.500E-01 0.500 F 0.200 0.123 +18° 52' 10.00" 1.000E-01 0.500 F 0.286 -0.345 o 691 0.74 Yes No
2014UJ192 O C K 2017-06-15.24362 1.000E-05 16:06:27.010 1.500E-01 0.500 F 0.137 0.452 +05° 35' 42.20" 1.000E-01 0.500 F 0.181 -0.343 o 691 1.16 Yes No
2017KP31 O C K 2017-06-15.24686 1.000E-05 15:46:55.440 1.500E-01 0.500 F 0.200 -0.588 +18° 51' 35.10" 1.000E-01 0.500 F 0.286 0.348 o 691 1.42 Yes No
2014UJ192 O C K 2017-06-15.25700 1.000E-05 16:06:26.250 1.500E-01 0.500 F 0.137 0.131 +05° 36' 08.00" 1.000E-01 0.500 F 0.181 0.110 o 691 0.36 Yes No
2017KP31 O C K 2017-06-15.26033 1.000E-05 15:46:54.830 1.500E-01 0.500 F 0.200 -0.213 +18° 50' 58.20" 1.000E-01 0.500 F 0.286 0.076 o 691 0.47 Yes No
2017KN4 O C K 2017-06-15.27181 1.000E-05 13:41:02.660 1.500E-01 0.500 F 0.144 -0.052 +02° 30' 55.70" 1.000E-01 0.500 F 0.033 -0.404 21.5 R 0.70 0.53 o 691 0.82 Yes Yes
2017KP4 O C K 2017-06-15.27577 1.000E-05 14:15:31.610 1.500E-01 0.500 F 0.040 0.409 +12° 19' 03.00" 1.000E-01 0.500 F 0.296 -0.110 o 691 0.91 Yes No
2017KN4 O C K 2017-06-15.29414 1.000E-05 13:41:01.700 1.500E-01 0.500 F 0.144 -0.206 +02° 30' 36.70" 1.000E-01 0.500 F 0.033 0.168 22.0 R 0.70 1.03 o 691 0.53 Yes Yes
2017KP4 O C K 2017-06-15.29811 1.000E-05 14:15:25.880 1.500E-01 0.500 F 0.040 1.597 +12° 20' 31.20" 1.000E-01 0.500 F 0.296 -0.971 o 691 3.45 No No
2017KP4 O C K 2017-06-15.32046 1.000E-05 14:15:19.950 1.500E-01 0.500 F 0.040 -0.396 +12° 22' 01.50" 1.000E-01 0.500 F 0.296 0.279 o 691 1.07 Yes No
2017KE3 O C K 2017-06-15.34973 1.000E-05 14:57:33.750 1.500E-01 0.500 F 0.171 -0.039 -02° 16' 44.70" 1.000E-01 0.500 F 0.157 -0.691 21.6 R 0.70 1.06 o 691 1.39 Yes Yes
2017KE3 O C K 2017-06-15.35651 1.000E-05 14:57:33.490 1.500E-01 0.500 F 0.171 0.269 -02° 16' 43.30" 1.000E-01 0.500 F 0.157 0.306 22.0 R 0.70 1.46 o 691 0.82 Yes Yes
2017KE3 O C K 2017-06-15.36328 1.000E-05 14:57:33.180 1.500E-01 0.500 F 0.171 -0.194 -02° 16' 43.40" 1.000E-01 0.500 F 0.157 -0.197 21.6 R 0.70 1.06 o 691 0.56 Yes Yes
1998HD14 O C K 2017-06-15.44923 1.000E-05 17:40:23.300 1.500E-01 0.500 F 0.012 -0.261 +12° 10' 34.40" 1.000E-01 0.500 F 0.219 -0.359 19.8 R 0.70 0.18 o 691 0.89 Yes Yes
1998HD14 O C K 2017-06-15.45329 1.000E-05 17:40:22.460 1.500E-01 0.500 F 0.012 0.019 +12° 10' 35.50" 1.000E-01 0.500 F 0.219 -0.478 19.8 R 0.70 0.18 o 691 0.96 Yes Yes
1998HD14 O C K 2017-06-15.45737 1.000E-05 17:40:21.600 1.500E-01 0.500 F 0.012 0.054 +12° 10' 36.80" 1.000E-01 0.500 F 0.219 -0.398 18.9 R 0.70 -0.72 o 691 0.81 Yes Yes
2017KD3 O C K 2017-06-16.17014 1.000E-05 14:32:28.880 1.500E-01 0.500 F 0.307 0.212 -28° 20' 11.30" 1.000E-01 0.500 F 0.273 -0.012 o 691 0.43 Yes No
2017KV4 O C K 2017-06-16.17632 1.000E-05 14:53:52.080 1.500E-01 0.500 F 0.006 0.356 -17° 46' 19.30" 1.000E-01 0.500 F 0.035 -0.285 o 691 0.95 Yes No
2017KD3 O C K 2017-06-16.18029 1.000E-05 14:32:28.570 1.500E-01 0.500 F 0.307 -0.691 -28° 20' 15.00" 1.000E-01 0.500 F 0.273 -0.408 o 691 1.68 Yes No
2017KV4 O C K 2017-06-16.18647 1.000E-05 14:53:50.480 1.500E-01 0.500 F 0.006 0.215 -17° 46' 03.30" 1.000E-01 0.500 F 0.035 0.111 o 691 0.50 Yes No
2017KD3 O C K 2017-06-16.19044 1.000E-05 14:32:28.420 1.500E-01 0.500 F 0.307 0.511 -28° 20' 17.00" 1.000E-01 0.500 F 0.273 0.845 o 691 2.16 Yes No
2017KV4 O C K 2017-06-16.19662 1.000E-05 14:53:48.880 1.500E-01 0.500 F 0.006 0.085 -17° 45' 47.60" 1.000E-01 0.500 F 0.035 0.158 o 691 0.37 Yes No
2017LA O C K 2017-06-16.19979 1.000E-05 14:34:41.120 1.500E-01 0.500 F 0.195 -0.744 +09° 25' 29.90" 1.000E-01 0.500 F 0.152 0.153 o 691 1.55 Yes No
2017LA O C K 2017-06-16.21972 1.000E-05 14:34:38.190 1.500E-01 0.500 F 0.195 0.538 +09° 23' 55.70" 1.000E-01 0.500 F 0.152 -0.375 o 691 1.34 Yes No
2017LP1 O C K 2017-06-16.26073 1.000E-05 15:06:04.780 1.500E-01 0.500 F 0.167 0.053 -07° 29' 52.00" 1.000E-01 0.500 F 0.130 0.148 o 691 0.32 Yes No
2017LP1 O C K 2017-06-16.27328 1.000E-05 15:06:04.610 1.500E-01 0.500 F 0.167 -0.074 -07° 29' 27.30" 1.000E-01 0.500 F 0.130 0.048 o 691 0.18 Yes No
2017LP1 O C K 2017-06-16.28585 1.000E-05 15:06:04.460 1.500E-01 0.500 F 0.167 0.028 -07° 29' 02.60" 1.000E-01 0.500 F 0.130 -0.093 o 691 0.20 Yes No
2012QB17 O C K 2017-06-16.32833 1.000E-05 19:44:35.370 1.500E-01 0.500 F 0.069 -0.181 -11° 58' 43.20" 1.000E-01 0.500 F 0.235 0.025 o 691 0.37 Yes No
2012QB17 O C K 2017-06-16.33649 1.000E-05 19:44:35.130 1.500E-01 0.500 F 0.069 -0.275 -11° 58' 38.20" 1.000E-01 0.500 F 0.235 1.127 o 691 2.34 Yes No
2012QB17 O C K 2017-06-16.34465 1.000E-05 19:44:34.860 1.500E-01 0.500 F 0.069 -0.797 -11° 58' 34.90" 1.000E-01 0.500 F 0.235 0.524 o 691 1.93 Yes No
2017MA O C 2017-06-16.35408 1.000E-05 15:45:21.760 1.500E-01 0.500 F 0.098 -0.010 +04° 04' 00.50" 1.000E-01 0.500 F 0.213 -0.111 19.5 V 0.70 0.30 o 691 0.22 Yes Yes
2017MB O C K 2017-06-16.35525 1.000E-05 16:00:43.230 1.500E-01 0.500 F 0.163 1.567 +04° 17' 03.00" 1.000E-01 0.500 F 0.135 0.313 o 691 3.17 No No
2017MA O C 2017-06-16.35752 1.000E-05 15:45:21.160 1.500E-01 0.500 F 0.098 -0.412 +04° 03' 50.40" 1.000E-01 0.500 F 0.213 -0.084 19.4 V 0.70 0.20 o 691 0.85 Yes Yes
2017MB O C K 2017-06-16.35869 1.000E-05 16:00:43.960 1.500E-01 0.500 F 0.163 -0.537 +04° 16' 42.00" 1.000E-01 0.500 F 0.135 0.224 o 691 1.18 Yes No
2017MA O C 2017-06-16.36097 1.000E-05 15:45:20.600 1.500E-01 0.500 F 0.098 -0.206 +04° 03' 40.10" 1.000E-01 0.500 F 0.213 -0.224 19.3 V 0.70 0.11 o 691 0.62 Yes Yes
2017BL6 O C 2017-06-17.19590 1.000E-05 12:41:30.750 1.500E-01 0.500 F 0.259 -0.492 -13° 10' 57.10" 1.000E-01 0.500 F 0.097 0.466 20.0 V 0.70 -0.64 o 691 1.37 Yes Yes
2017BL6 O C 2017-06-17.20063 1.000E-05 12:41:32.390 1.500E-01 0.500 F 0.259 0.001 -13° 10' 56.50" 1.000E-01 0.500 F 0.097 -0.008 20.0 V 0.70 -0.64 o 691 0.02 Yes Yes
2017BL6 O C 2017-06-17.20535 1.000E-05 12:41:33.970 1.500E-01 0.500 F 0.259 -0.346 -13° 10' 55.50" 1.000E-01 0.500 F 0.097 -0.085 20.2 V 0.70 -0.44 o 691 0.72 Yes Yes
2017FP64 O C K 2017-06-17.21379 1.000E-05 12:14:33.780 1.500E-01 0.500 F 0.163 0.022 +14° 59' 26.40" 1.000E-01 0.500 F 0.163 0.033 20.5 R 0.70 -0.13 o 691 0.08 Yes Yes
2017FP64 O C K 2017-06-17.21793 1.000E-05 12:14:34.560 1.500E-01 0.500 F 0.163 -0.512 +14° 59' 22.30" 1.000E-01 0.500 F 0.163 -0.758 21.2 R 0.70 0.57 o 691 1.86 Yes Yes
2017FP64 O C K 2017-06-17.22207 1.000E-05 12:14:35.460 1.500E-01 0.500 F 0.163 0.688 +14° 59' 19.80" 1.000E-01 0.500 F 0.163 0.053 o 691 1.41 Yes No
2017LP1 O C K 2017-06-17.24976 1.000E-05 15:06:02.980 1.500E-01 0.500 F 0.338 0.033 -06° 58' 13.60" 1.000E-01 0.500 F 0.058 0.102 o 691 0.22 Yes No
2017MA O C 2017-06-17.26240 1.000E-05 15:43:01.680 1.500E-01 0.500 F 0.104 -0.600 +03° 17' 29.50" 1.000E-01 0.500 F 0.199 -0.103 19.1 V 0.70 -0.02 o 691 1.23 Yes Yes
2017LP1 O C K 2017-06-17.26385 1.000E-05 15:06:02.840 1.500E-01 0.500 F 0.338 -0.091 -06° 57' 47.10" 1.000E-01 0.500 F 0.058 0.166 o 691 0.39 Yes No
2017MA O C 2017-06-17.27645 1.000E-05 15:42:59.160 1.500E-01 0.500 F 0.104 0.026 +03° 16' 44.10" 1.000E-01 0.500 F 0.199 -0.103 19.6 V 0.70 0.49 o 691 0.21 Yes Yes
2017LP1 O C K 2017-06-17.27790 1.000E-05 15:06:02.720 1.500E-01 0.500 F 0.338 -0.004 -06° 57' 20.70" 1.000E-01 0.500 F 0.058 0.204 o 691 0.43 Yes No
2017MA O C 2017-06-17.29052 1.000E-05 15:42:56.590 1.500E-01 0.500 F 0.104 -0.130 +03° 15' 58.70" 1.000E-01 0.500 F 0.199 0.052 19.1 V 0.70 -0.01 o 691 0.28 Yes Yes
2017MH O C K 2017-06-17.29186 1.000E-05 14:36:48.330 1.500E-01 0.500 F 0.149 0.726 +02° 57' 13.10" 1.000E-01 0.500 F 0.187 -0.410 o 691 1.74 Yes No
2017MH O C K 2017-06-17.29572 1.000E-05 14:36:45.780 1.500E-01 0.500 F 0.149 -0.454 +02° 56' 22.80" 1.000E-01 0.500 F 0.187 -0.335 o 691 1.17 Yes No
2017MH O C K 2017-06-17.29956 1.000E-05 14:36:43.370 1.500E-01 0.500 F 0.149 0.249 +02° 55' 34.20" 1.000E-01 0.500 F 0.187 1.171 o 691 2.49 Yes No
2017MB O C K 2017-06-17.30586 1.000E-05 16:05:06.760 1.500E-01 0.500 F 0.229 0.114 +02° 39' 06.40" 1.000E-01 0.500 F 0.106 0.177 o 691 0.42 Yes No
2017LF1 O C K 2017-06-17.31015 1.000E-05 15:51:48.280 1.500E-01 0.500 F 0.284 -0.013 -10° 01' 50.60" 1.000E-01 0.500 F 0.256 -0.050 o 691 0.11 Yes No
2017MB O C K 2017-06-17.31417 1.000E-05 16:05:08.940 1.500E-01 0.500 F 0.229 0.526 +02° 38' 13.20" 1.000E-01 0.500 F 0.106 -0.593 o 691 1.61 Yes No
2017LF1 O C K 2017-06-17.32673 1.000E-05 15:52:01.120 1.500E-01 0.500 F 0.284 0.941 -10° 02' 46.20" 1.000E-01 0.500 F 0.256 -0.555 o 691 2.34 Yes No
2017LG1 O C K 2017-06-17.33628 1.000E-05 16:56:32.460 1.500E-01 0.500 F 0.018 -0.166 -00° 16' 05.90" 1.000E-01 0.500 F 0.120 -0.337 o 691 0.78 Yes No
1998HD14 O C 2017-06-17.34043 1.000E-05 17:33:57.730 1.500E-01 0.500 F -0.028 -0.029 +12° 18' 54.30" 1.000E-01 0.500 F 0.182 0.131 20.3 V 0.70 0.27 o 691 0.27 Yes Yes
2017LG1 O C K 2017-06-17.34592 1.000E-05 16:56:34.850 1.500E-01 0.500 F 0.018 -0.291 -00° 18' 05.20" 1.000E-01 0.500 F 0.120 -0.168 o 691 0.70 Yes No
1998HD14 O C 2017-06-17.35008 1.000E-05 17:33:55.670 1.500E-01 0.500 F -0.028 0.151 +12° 18' 56.10" 1.000E-01 0.500 F 0.182 0.084 20.1 V 0.70 0.07 o 691 0.35 Yes Yes
2017LG1 O C K 2017-06-17.35557 1.000E-05 16:56:37.310 1.500E-01 0.500 F -0.015 0.449 -00° 20' 04.60" 1.000E-01 0.500 F 0.121 0.062 o 691 0.94 Yes No
1998HD14 O C 2017-06-17.35974 1.000E-05 17:33:53.630 1.500E-01 0.500 F -0.028 0.627 +12° 18' 57.90" 1.000E-01 0.500 F 0.182 0.061 20.0 V 0.70 -0.03 o 691 1.27 Yes Yes
2004MD6 O C K 2017-06-17.38695 1.000E-05 20:50:15.030 1.500E-01 0.500 F 0.004 -0.033 +14° 15' 20.40" 1.000E-01 0.500 F 0.257 -0.133 o 691 0.28 Yes No
2004MD6 O C K 2017-06-17.39104 1.000E-05 20:50:12.320 1.500E-01 0.500 F 0.004 0.274 +14° 15' 33.90" 1.000E-01 0.500 F 0.257 -0.698 o 691 1.53 Yes No
2004MD6 O C K 2017-06-17.39513 1.000E-05 20:50:09.560 1.500E-01 0.500 F 0.004 -0.139 +14° 15' 48.10" 1.000E-01 0.500 F 0.257 -0.553 o 691 1.15 Yes No
2017LA O C K 2017-06-18.21759 1.000E-05 14:30:04.530 1.500E-01 0.500 F 0.269 -0.047 +06° 50' 01.50" 1.000E-01 0.500 F 0.257 -0.514 o 691 1.07 Yes No
2017LA O C K 2017-06-18.21875 1.000E-05 14:30:04.380 1.500E-01 0.500 F 0.269 0.070 +06° 49' 56.90" 1.000E-01 0.500 F 0.257 0.161 o 691 0.36 Yes No
2017MH O C K 2017-06-18.22100 1.000E-05 14:27:22.120 1.500E-01 0.500 F 0.093 0.407 -00° 20' 02.10" 1.000E-01 0.500 F 0.202 0.073 o 691 0.84 Yes No
2017MH O C K 2017-06-18.22752 1.000E-05 14:27:18.130 1.500E-01 0.500 F 0.093 -0.278 -00° 21' 23.30" 1.000E-01 0.500 F 0.202 -0.203 o 691 0.70 Yes No
2014HR184 O C K 2017-06-18.29985 1.000E-05 15:09:09.640 1.500E-01 0.500 F 0.179 0.463 -19° 02' 21.70" 1.000E-01 0.500 F -0.194 -0.258 o 691 1.06 Yes No
2014HR184 O C K 2017-06-18.31069 1.000E-05 15:09:08.890 1.500E-01 0.500 F 0.179 -0.309 -19° 02' 10.30" 1.000E-01 0.500 F -0.194 -0.003 o 691 0.62 Yes No
2017KL3 O C K 2017-06-18.33344 1.000E-05 17:06:52.750 1.500E-01 0.500 F 0.128 0.253 +09° 47' 12.20" 1.000E-01 0.500 F 0.247 -0.240 o 691 0.72 Yes No
2017KL3 O C K 2017-06-18.36054 1.000E-05 17:06:56.160 1.500E-01 0.500 F 0.128 0.117 +09° 47' 59.20" 1.000E-01 0.500 F 0.247 -0.724 o 691 1.52 Yes No
2017KL3 O C K 2017-06-18.38763 1.000E-05 17:06:59.650 1.500E-01 0.500 F 0.128 0.763 +09° 48' 46.70" 1.000E-01 0.500 F 0.247 -0.497 o 691 1.89 Yes No
2017MD O C K 2017-06-18.39764 1.000E-05 17:59:30.820 1.500E-01 0.500 F -0.015 -0.126 +17° 39' 12.40" 1.000E-01 0.500 F 0.338 0.016 o 691 0.26 Yes No
2017MD O C K 2017-06-18.40158 1.000E-05 17:59:30.120 1.500E-01 0.500 F -0.015 -0.322 +17° 38' 20.20" 1.000E-01 0.500 F 0.338 0.210 o 691 0.78 Yes No
1995LG O C K 2017-06-18.41652 1.000E-05 22:38:23.900 1.500E-01 0.500 F -0.087 -0.091 +20° 34' 33.00" 1.000E-01 0.500 F 0.327 -1.206 o 691 2.43 Yes No
1995LG O C K 2017-06-18.41864 1.000E-05 22:38:24.400 1.500E-01 0.500 F -0.087 0.293 +20° 34' 49.00" 1.000E-01 0.500 F 0.327 -0.862 o 691 1.83 Yes No
2013MR O C K 2017-06-19.17675 1.000E-05 11:56:43.080 1.500E-01 0.500 F 0.182 0.715 -19° 48' 52.20" 1.000E-01 0.500 F 0.103 0.372 o 691 1.95 Yes No
2013MR O C K 2017-06-19.18509 1.000E-05 11:56:48.080 1.500E-01 0.500 F 0.182 -0.236 -19° 48' 34.10" 1.000E-01 0.500 F 0.103 0.280 o 691 0.93 Yes No
2017MH O C K 2017-06-19.20333 1.000E-05 14:18:00.300 1.500E-01 0.500 F 0.112 0.077 -03° 37' 12.10" 1.000E-01 0.500 F 0.128 -0.285 o 691 0.60 Yes No
2017MH O C K 2017-06-19.20722 1.000E-05 14:17:58.120 1.500E-01 0.500 F 0.112 0.412 -03° 37' 57.20" 1.000E-01 0.500 F 0.128 -0.054 o 691 0.84 Yes No
2017MH O C K 2017-06-19.21112 1.000E-05 14:17:55.840 1.500E-01 0.500 F 0.112 -0.680 -03° 38' 43.40" 1.000E-01 0.500 F 0.128 -0.820 o 691 2.17 Yes No
2017BG85 O C K 2017-06-19.22468 1.000E-05 11:48:30.150 1.500E-01 0.500 F 0.202 0.705 +09° 20' 34.90" 1.000E-01 0.500 F 0.169 0.477 o 691 1.72 Yes No
2017BG85 O C K 2017-06-19.23016 1.000E-05 11:48:31.190 1.500E-01 0.500 F 0.202 0.211 +09° 20' 29.70" 1.000E-01 0.500 F 0.169 0.082 o 691 0.46 Yes No
1998HD14 O C K 2017-06-19.33079 1.000E-05 17:27:13.200 1.500E-01 0.500 F -0.038 0.339 +12° 23' 20.30" 1.000E-01 0.500 F 0.150 -0.179 19.7 R 0.70 0.06 o 691 0.77 Yes Yes
1998HD14 O C K 2017-06-19.34631 1.000E-05 17:27:09.890 1.500E-01 0.500 F -0.038 0.211 +12° 23' 21.40" 1.000E-01 0.500 F 0.150 0.026 19.6 R 0.70 -0.04 o 691 0.43 Yes Yes
1998HD14 O C K 2017-06-19.36183 1.000E-05 17:27:06.570 1.500E-01 0.500 F -0.038 -0.147 +12° 23' 22.70" 1.000E-01 0.500 F 0.150 0.497 19.8 R 0.70 0.16 o 691 1.04 Yes Yes
1995LG O C K 2017-06-19.36848 1.000E-05 22:42:10.510 1.500E-01 0.500 F -0.059 -0.048 +22° 34' 23.90" 1.000E-01 0.500 F 0.271 0.212 o 691 0.44 Yes No
1995LG O C K 2017-06-19.37059 1.000E-05 22:42:11.000 1.500E-01 0.500 F -0.059 -0.324 +22° 34' 40.50" 1.000E-01 0.500 F 0.271 0.395 o 691 1.03 Yes No
1995LG O C K 2017-06-19.37271 1.000E-05 22:42:11.520 1.500E-01 0.500 F -0.059 -0.216 +22° 34' 57.10" 1.000E-01 0.500 F 0.271 0.499 o 691 1.09 Yes No
2013CL118 O C 2017-06-24.21588 1.000E-05 16:15:54.770 1.500E-01 0.500 F 0.156 -0.389 -07° 14' 21.30" 1.000E-01 0.500 F 0.205 0.094 o 691 0.80 Yes No
2013CL118 O C 2017-06-24.22491 1.000E-05 16:15:56.240 1.500E-01 0.500 F 0.156 -0.061 -07° 14' 43.40" 1.000E-01 0.500 F 0.205 1.352 o 691 2.72 Yes No
2013CL118 O C 2017-06-24.23394 1.000E-05 16:15:57.670 1.500E-01 0.500 F 0.156 -0.320 -07° 15' 08.20" 1.000E-01 0.500 F 0.205 -0.109 o 691 0.68 Yes No
2017MV2 O C K 2017-06-24.29961 1.000E-05 16:55:47.170 1.500E-01 0.500 F -0.051 -0.331 +02° 31' 32.20" 1.000E-01 0.500 F 0.201 0.288 19.9 R 0.70 -0.62 o 691 0.88 Yes Yes
2017MV2 O C K 2017-06-24.31960 1.000E-05 16:55:45.530 1.500E-01 0.500 F -0.051 0.153 +02° 31' 45.10" 1.000E-01 0.500 F 0.201 -0.140 19.7 R 0.70 -0.82 o 691 0.42 Yes Yes
2017MV2 O C K 2017-06-24.33960 1.000E-05 16:55:43.850 1.500E-01 0.500 F -0.051 -0.050 +02° 31' 58.80" 1.000E-01 0.500 F 0.201 0.246 18.9 R 0.70 -1.62 o 691 0.50 Yes Yes
2017MW4 O C K 2017-06-24.40683 1.000E-05 21:01:22.780 1.500E-01 0.500 F 0.080 -0.598 -24° 43' 09.60" 1.000E-01 0.500 F 0.460 0.136 18.9 R 0.70 -0.81 o 691 1.23 Yes Yes
2017MW4 O C K 2017-06-24.42945 1.000E-05 21:01:17.870 1.500E-01 0.500 F 0.080 -0.194 -24° 42' 17.00" 1.000E-01 0.500 F 0.460 0.352 19.2 R 0.70 -0.51 o 691 0.81 Yes Yes
2017MW4 O C K 2017-06-24.45206 1.000E-05 21:01:12.880 1.500E-01 0.500 F 0.080 -0.872 -24° 41' 24.50" 1.000E-01 0.500 F 0.460 0.310 18.8 R 0.70 -0.91 o 691 1.86 Yes Yes
2017HV4 O C K 2017-06-24.45744 1.000E-05 21:10:28.410 1.500E-01 0.612 F -0.101 0.297 -19° 35' 43.90" 1.000E-01 0.612 F 0.108 0.082 o 691 0.51 Yes No
2017HV4 O C 2017-06-24.45744 1.000E-05 21:10:28.380 1.500E-01 0.612 F -0.101 -0.127 -19° 35' 43.90" 1.000E-01 0.612 F 0.108 0.082 19.7 V 0.70 -0.04 o 691 0.25 Yes Yes
2017HV4 O C K 2017-06-24.46110 1.000E-05 21:10:29.490 1.500E-01 0.612 F -0.101 0.836 -19° 35' 31.70" 1.000E-01 0.612 F 0.108 0.032 o 691 1.38 Yes No
2017HV4 O C 2017-06-24.46110 1.000E-05 21:10:29.420 1.500E-01 0.612 F -0.101 -0.153 -19° 35' 31.70" 1.000E-01 0.612 F 0.108 0.032 19.9 V 0.70 0.16 o 691 0.26 Yes Yes
2017HV4 O C 2017-06-24.46475 1.000E-05 21:10:30.460 1.500E-01 0.612 F -0.101 -0.146 -19° 35' 19.70" 1.000E-01 0.612 F 0.108 -0.205 20.1 V 0.70 0.36 o 691 0.41 Yes Yes
2017HV4 O C K 2017-06-24.46475 1.000E-05 21:10:30.500 1.500E-01 0.612 F -0.101 0.420 -19° 35' 19.40" 1.000E-01 0.612 F 0.108 0.095 o 691 0.71 Yes No
2017LA O C K 2017-06-28.22142 1.000E-05 14:13:57.950 1.500E-01 0.500 F 0.152 -0.499 -04° 33' 22.10" 1.000E-01 0.500 F 0.118 0.183 o 691 1.11 Yes No
2017LP1 O C K 2017-06-28.22830 1.000E-05 15:09:11.070 1.500E-01 0.500 F 0.212 -0.126 -02° 41' 49.40" 1.000E-01 0.500 F 0.151 -0.162 20.9 R 0.70 -0.59 o 691 0.46 Yes Yes
2017MR7 O C K 2017-06-28.23953 1.000E-05 15:54:31.550 1.500E-01 0.500 F 0.076 -0.971 +18° 43' 31.80" 1.000E-01 0.500 F 0.206 0.113 o 691 2.08 Yes No
2017LA O C K 2017-06-28.24766 1.000E-05 14:13:56.130 1.500E-01 0.500 F 0.251 0.213 -04° 34' 58.00" 1.000E-01 0.500 F 0.141 -0.394 o 691 0.93 Yes No
2017LP1 O C K 2017-06-28.25454 1.000E-05 15:09:11.750 1.500E-01 0.500 F 0.212 0.027 -02° 41' 23.30" 1.000E-01 0.500 F 0.151 -0.238 o 691 0.54 Yes No
2017MR7 O C K 2017-06-28.26578 1.000E-05 15:54:21.220 1.500E-01 0.500 F 0.076 -0.804 +18° 45' 00.00" 1.000E-01 0.500 F 0.206 -0.121 o 691 1.74 Yes No
2017LP1 O C K 2017-06-28.28079 1.000E-05 15:09:12.450 1.500E-01 0.500 F 0.212 0.196 -02° 40' 56.70" 1.000E-01 0.500 F 0.151 0.198 21.1 R 0.70 -0.39 o 691 0.62 Yes Yes
2017MR7 O C K 2017-06-28.29199 1.000E-05 15:54:10.910 1.500E-01 0.500 F 0.076 -0.716 +18° 46' 28.50" 1.000E-01 0.500 F 0.206 0.305 o 691 1.75 Yes No
2017MC3 O C H 2017-06-28.30023 1.000E-05 16:35:43.830 1.500E-01 0.500 F 0.073 -0.145 +01° 44' 51.10" 1.000E-01 0.500 F 0.153 -0.411 18.9 R 0.70 0.77 o 691 0.88 Yes Yes
2017MV2 O C 2017-06-28.30298 1.000E-05 16:50:40.970 1.500E-01 0.500 F 0.145 -0.312 +03° 12' 58.00" 1.000E-01 0.500 F 0.215 -0.856 20.2 V 0.70 -0.67 o 691 1.83 Yes Yes
2017MC3 O C H 2017-06-28.30448 1.000E-05 16:35:39.520 1.500E-01 0.500 F 0.073 0.663 +01° 45' 31.80" 1.000E-01 0.500 F 0.153 0.026 18.0 R 0.70 -0.13 o 691 1.34 Yes Yes
2017MV2 O C 2017-06-28.30724 1.000E-05 16:50:40.580 1.500E-01 0.500 F 0.145 -0.872 +03° 13' 01.40" 1.000E-01 0.500 F 0.215 0.118 20.2 V 0.70 -0.67 o 691 1.77 Yes Yes
2017MC3 O C H 2017-06-28.30875 1.000E-05 16:35:35.120 1.500E-01 0.500 F 0.073 0.467 +01° 46' 12.30" 1.000E-01 0.500 F 0.153 0.020 18.5 R 0.70 0.37 o 691 0.94 Yes Yes
2017MV2 O C 2017-06-28.31150 1.000E-05 16:50:40.280 1.500E-01 0.500 F 0.145 -0.090 +03° 13' 03.90" 1.000E-01 0.500 F 0.215 0.192 20.0 V 0.70 -0.87 o 691 0.43 Yes Yes
2017MW2 O C H 2017-06-28.34691 1.000E-05 20:12:57.860 1.500E-01 0.612 F -0.035 0.347 -09° 49' 06.20" 1.000E-01 0.612 F 0.111 -0.153 19.4 R 0.70 0.16 o 691 0.62 Yes Yes
2017MW4 O C H 2017-06-28.34810 1.000E-05 20:46:54.640 1.500E-01 0.500 F -0.044 0.744 -22° 03' 48.10" 1.000E-01 0.500 F 0.106 0.322 20.2 R 0.70 0.68 o 691 1.63 Yes Yes
2017MX2 O C K 2017-06-28.35057 1.000E-05 20:08:15.130 1.500E-01 0.500 F -0.140 -1.535 -16° 23' 00.00" 1.000E-01 0.500 F 0.293 0.596 o 691 3.25 No No
2017MW2 O C H 2017-06-28.35470 1.000E-05 20:12:57.980 1.500E-01 0.612 F -0.035 1.084 -09° 49' 52.10" 1.000E-01 0.612 F 0.111 -1.029 18.9 R 0.70 -0.34 o 691 2.46 Yes Yes
2017MW4 O C H 2017-06-28.35589 1.000E-05 20:46:52.740 1.500E-01 0.500 F -0.044 0.084 -22° 03' 29.40" 1.000E-01 0.500 F 0.106 -0.574 20.3 R 0.70 0.78 o 691 1.17 Yes Yes
2017MX2 O C K 2017-06-28.35836 1.000E-05 20:08:15.670 1.500E-01 0.500 F -0.140 0.397 -16° 22' 40.80" 1.000E-01 0.500 F 0.293 -0.695 20.1 R 0.70 -0.72 o 691 1.64 Yes Yes
2017MW2 O C H 2017-06-28.36250 1.000E-05 20:12:58.000 1.500E-01 0.612 F -0.035 0.354 -09° 50' 36.30" 1.000E-01 0.612 F 0.111 -0.144 o 691 0.63 Yes No
2017MW4 O C H 2017-06-28.36369 1.000E-05 20:46:50.860 1.500E-01 0.500 F -0.044 -0.247 -22° 03' 09.20" 1.000E-01 0.500 F 0.106 -0.014 19.7 R 0.70 0.18 o 691 0.50 Yes Yes
2017MX2 O C K 2017-06-28.36617 1.000E-05 20:08:16.000 1.500E-01 0.500 F -0.140 -0.695 -16° 22' 20.30" 1.000E-01 0.500 F 0.293 -0.759 o 691 2.08 Yes No
2017MB1 O C 2017-06-28.37070 1.000E-05 20:39:03.470 1.500E-01 0.500 F -0.056 -0.188 -05° 48' 53.90" 1.000E-01 0.500 F 0.296 0.120 18.4 V 0.70 0.08 o 691 0.45 Yes Yes
2017MF4 O C K 2017-06-28.38286 1.000E-05 20:14:28.040 1.500E-01 0.500 F -0.035 1.389 -09° 34' 41.80" 1.000E-01 0.500 F 0.111 -0.074 o 691 2.83 Yes No
2017MW2 O C 2017-06-28.38286 1.000E-05 20:12:58.150 1.500E-01 0.612 F -0.035 -0.064 -09° 52' 34.00" 1.000E-01 0.612 F 0.111 -0.147 19.5 V 0.70 -0.14 o 691 0.26 Yes Yes
2017MW2 O C 2017-06-28.38800 1.000E-05 20:12:58.200 1.500E-01 0.612 F -0.035 0.014 -09° 53' 03.90" 1.000E-01 0.612 F 0.111 -0.330 20.4 V 0.70 0.76 o 691 0.55 Yes Yes
2017MB1 O C 2017-06-28.38972 1.000E-05 20:39:05.410 1.500E-01 0.500 F -0.056 -0.208 -05° 48' 37.60" 1.000E-01 0.500 F 0.296 0.213 18.2 V 0.70 -0.12 o 691 0.60 Yes Yes
2017MF4 O C K 2017-06-28.40192 1.000E-05 20:14:28.750 1.500E-01 0.500 F -0.035 1.076 -09° 34' 09.30" 1.000E-01 0.500 F 0.111 0.353 o 691 2.31 Yes No
2017MW2 O C 2017-06-28.40535 1.000E-05 20:12:58.340 1.500E-01 0.612 F -0.035 -0.149 -09° 54' 43.50" 1.000E-01 0.612 F 0.111 0.386 19.7 V 0.70 0.07 o 691 0.68 Yes Yes
2017MB1 O C 2017-06-28.40878 1.000E-05 20:39:07.360 1.500E-01 0.500 F -0.056 -0.145 -05° 48' 21.30" 1.000E-01 0.500 F 0.296 0.224 18.3 V 0.70 -0.02 o 691 0.54 Yes Yes
2017KP31 O C K 2017-06-29.16668 1.000E-05 15:41:42.250 1.500E-01 0.500 F 0.331 0.432 +08° 25' 08.80" 1.000E-01 0.500 F 0.274 0.027 o 691 0.99 Yes No
2017MA4 O C K 2017-06-29.17615 1.000E-05 16:14:32.470 1.500E-01 0.500 F 0.278 -0.140 -05° 21' 17.90" 1.000E-01 0.500 F 0.220 -0.403 o 691 0.86 Yes No
2017KP31 O C K 2017-06-29.18075 1.000E-05 15:41:42.100 1.500E-01 0.500 F 0.331 -0.148 +08° 24' 32.10" 1.000E-01 0.500 F 0.274 0.165 o 691 0.48 Yes No
2017MA4 O C K 2017-06-29.19031 1.000E-05 16:14:31.030 1.500E-01 0.500 F 0.278 -0.134 -05° 21' 06.20" 1.000E-01 0.500 F 0.220 0.051 o 691 0.29 Yes No
2017KP31 O C K 2017-06-29.19504 1.000E-05 15:41:42.030 1.500E-01 0.500 F 0.331 0.484 +08° 23' 54.30" 1.000E-01 0.500 F 0.274 -0.212 o 691 1.18 Yes No
2017MA4 O C K 2017-06-29.20473 1.000E-05 16:14:29.530 1.500E-01 0.500 F 0.278 -0.626 -05° 20' 55.10" 1.000E-01 0.500 F 0.220 -0.303 o 691 1.40 Yes No
2010VB1 O C 2017-06-29.20923 1.000E-05 16:47:08.710 1.500E-01 0.500 F -0.082 -0.562 -15° 00' 26.10" 1.000E-01 0.500 F 0.212 -1.882 18.1 V 0.70 -0.68 o 691 3.91 No Yes
2017MC7 O C K 2017-06-29.21057 1.000E-05 16:45:58.070 1.500E-01 0.500 F 0.060 0.169 -09° 06' 57.80" 1.000E-01 0.500 F 0.163 -0.069 o 691 0.38 Yes No
2017ME7 O C K 2017-06-29.21845 1.000E-05 16:51:23.850 1.500E-01 0.500 F -0.218 0.068 -12° 11' 23.70" 1.000E-01 0.500 F 0.208 0.007 o 691 0.14 Yes No
2010VB1 O C 2017-06-29.22260 1.000E-05 16:47:11.660 1.500E-01 0.500 F -0.082 -0.676 -15° 01' 23.90" 1.000E-01 0.500 F 0.212 0.112 18.5 V 0.70 -0.28 o 691 1.37 Yes Yes
2017MC7 O C K 2017-06-29.22396 1.000E-05 16:45:58.100 1.500E-01 0.500 F 0.060 0.321 -09° 07' 22.00" 1.000E-01 0.500 F 0.163 0.034 o 691 0.68 Yes No
2017ME7 O C K 2017-06-29.23183 1.000E-05 16:51:22.420 1.500E-01 0.500 F -0.218 0.231 -12° 11' 00.60" 1.000E-01 0.500 F 0.208 -0.044 o 691 0.47 Yes No
2010VB1 O C 2017-06-29.23597 1.000E-05 16:47:14.640 1.500E-01 0.500 F -0.082 -0.217 -15° 02' 23.80" 1.000E-01 0.500 F 0.212 -0.298 18.8 V 0.70 0.01 o 691 0.74 Yes Yes
2017MC7 O C K 2017-06-29.23733 1.000E-05 16:45:58.110 1.500E-01 0.500 F 0.060 0.187 -09° 07' 46.90" 1.000E-01 0.500 F 0.163 -0.620 o 691 1.36 Yes No
2017ME7 O C K 2017-06-29.24520 1.000E-05 16:51:20.950 1.500E-01 0.500 F -0.218 -0.207 -12° 10' 38.20" 1.000E-01 0.500 F 0.208 -0.797 o 691 1.66 Yes No
2017FU158 O C K 2017-06-29.26877 1.000E-05 17:37:47.360 1.500E-01 0.500 F -0.033 -0.228 +01° 52' 50.90" 1.000E-01 0.500 F 0.207 -0.184 21.4 R 0.70 -0.13 o 691 0.62 Yes Yes
2017KV31 O C K 2017-06-29.28382 1.000E-05 18:01:28.480 1.500E-01 0.500 F 0.005 0.234 +01° 32' 31.60" 1.000E-01 0.500 F 0.178 0.386 o 691 1.26 Yes No
2017FU158 O C K 2017-06-29.28805 1.000E-05 17:37:46.200 1.500E-01 0.500 F -0.033 0.097 +01° 52' 32.70" 1.000E-01 0.500 F 0.207 -0.072 22.3 R 0.70 0.77 o 691 0.25 Yes Yes
2017KV31 O C K 2017-06-29.30305 1.000E-05 18:01:31.500 1.500E-01 0.500 F 0.005 -0.144 +01° 33' 25.00" 1.000E-01 0.500 F 0.178 -0.307 o 691 0.95 Yes No
2017FU158 O C K 2017-06-29.30727 1.000E-05 17:37:45.020 1.500E-01 0.500 F -0.033 0.051 +01° 52' 15.10" 1.000E-01 0.500 F 0.207 0.587 o 691 1.25 Yes No
2004AH O C K 2017-06-29.34246 1.000E-05 21:10:25.820 1.500E-01 0.500 F -0.091 1.533 -19° 56' 15.30" 1.000E-01 0.500 F 0.053 -1.085 o 691 3.74 No No
2004AH O C K 2017-06-29.36822 1.000E-05 21:10:25.440 1.500E-01 0.500 F -0.091 0.355 -19° 56' 34.20" 1.000E-01 0.500 F 0.053 -0.114 o 691 0.75 Yes No
2004AH O C K 2017-06-29.39400 1.000E-05 21:10:25.080 1.500E-01 0.500 F -0.091 -0.456 -19° 56' 54.00" 1.000E-01 0.500 F 0.053 -0.070 22.4 R 0.70 1.35 o 691 0.93 Yes Yes
2017HV4 O C K 2017-06-29.40432 1.000E-05 21:34:04.670 1.500E-01 0.500 F -0.109 -0.059 -15° 29' 01.60" 1.000E-01 0.500 F 0.317 0.048 o 691 0.15 Yes No
2015FO124 O C H 2017-06-29.40931 1.000E-05 20:58:08.170 1.500E-01 0.500 F 0.044 -0.357 -05° 59' 34.00" 1.000E-01 0.500 F 0.286 -0.164 20.8 R 0.70 0.12 o 691 0.79 Yes Yes
2017MB1 O C 2017-06-29.41194 1.000E-05 20:41:02.270 1.500E-01 0.500 F -0.056 -0.123 -05° 33' 39.40" 1.000E-01 0.500 F 0.296 0.124 18.4 V 0.70 0.20 o 691 0.35 Yes Yes
2017HV4 O C K 2017-06-29.41352 1.000E-05 21:34:06.400 1.500E-01 0.500 F -0.109 -0.140 -15° 28' 37.20" 1.000E-01 0.500 F 0.317 0.196 o 691 0.49 Yes No
2015FO124 O C H 2017-06-29.41851 1.000E-05 20:58:08.540 1.500E-01 0.500 F 0.044 0.098 -05° 59' 33.70" 1.000E-01 0.500 F 0.286 -0.190 20.8 R 0.70 0.12 o 691 0.43 Yes Yes
2017MB1 O C 2017-06-29.42115 1.000E-05 20:41:03.250 1.500E-01 0.500 F -0.056 -0.446 -05° 33' 31.60" 1.000E-01 0.500 F 0.296 -0.421 18.2 V 0.70 0.00 o 691 1.23 Yes Yes
2017HV4 O C K 2017-06-29.42287 1.000E-05 21:34:08.170 1.500E-01 0.500 F -0.109 0.026 -15° 28' 12.50" 1.000E-01 0.500 F 0.317 0.159 o 691 0.33 Yes No
2015FO124 O C H 2017-06-29.42786 1.000E-05 20:58:08.910 1.500E-01 0.500 F 0.044 0.470 -05° 59' 32.50" 1.000E-01 0.500 F 0.286 0.675 20.7 R 0.70 0.02 o 691 1.65 Yes Yes
2017MB1 O C 2017-06-29.43050 1.000E-05 20:41:04.280 1.500E-01 0.500 F -0.056 -0.267 -05° 33' 22.70" 1.000E-01 0.500 F 0.296 -0.005 18.3 V 0.70 0.10 o 691 0.54 Yes Yes
2017MC3 O C K 2017-06-30.17775 1.000E-05 15:52:00.780 1.500E-01 0.500 F 0.183 -0.521 +08° 53' 01.40" 1.000E-01 0.500 F 0.199 -0.004 17.0 R 0.70 -0.69 o 691 1.06 Yes Yes
2010VB1 O C H 2017-06-30.18126 1.000E-05 16:51:17.610 1.500E-01 0.500 F -0.113 0.138 -16° 08' 03.10" 1.000E-01 0.500 F 0.314 -0.190 18.3 R 0.70 -0.21 o 691 0.47 Yes Yes
2017MA4 O C K 2017-06-30.18317 1.000E-05 16:12:53.330 1.500E-01 0.500 F 0.278 -0.618 -05° 08' 03.10" 1.000E-01 0.500 F 0.220 0.503 o 691 1.60 Yes No
2017MC3 O C K 2017-06-30.19213 1.000E-05 15:51:29.640 1.500E-01 0.500 F 0.183 -0.076 +08° 57' 40.30" 1.000E-01 0.500 F 0.199 -0.101 17.1 R 0.70 -0.58 o 691 0.26 Yes Yes
2010VB1 O C H 2017-06-30.19559 1.000E-05 16:51:20.460 1.500E-01 0.500 F -0.113 -0.051 -16° 08' 59.80" 1.000E-01 0.500 F 0.314 0.000 18.1 R 0.70 -0.42 o 691 0.10 Yes Yes
2017MA4 O C K 2017-06-30.19751 1.000E-05 16:12:51.960 1.500E-01 0.500 F 0.278 0.360 -05° 07' 52.70" 1.000E-01 0.500 F 0.220 -0.298 o 691 0.94 Yes No
2010VB1 O C H 2017-06-30.21031 1.000E-05 16:51:23.400 1.500E-01 0.500 F -0.113 0.227 -16° 09' 58.00" 1.000E-01 0.500 F 0.314 -0.101 o 691 0.50 Yes No

[1-200] [201-400] [401-600] [601-800] [801-1000] [1001-1200] [1201-1400] [1401-1600] [1601-1800] [1801-2000] [2001-2200] [2201-2400] [2401-2600] [2601-2800] [2801-3000] [3001-3200] [3201-3400] [3401-3600] [3601-3800] [3801-4000] [4001-4200] [4201-4400] [4401-4600] [4601-4800] [4801-5000] [5001-5200] [5201-5400] [5401-5600] [5601-5800] [5801-6000] [6001-6200] [6201-6400] [6401-6600] [6601-6800] [6801-7000] [7001-7200] [7201-7400] [7401-7600] [7601-7800] [7801-8000] [8001-8200] [8201-8400] [8401-8600] [8601-8800] [8801-9000] [9001-9200] [9201-9400] [9401-9600] [9601-9800] [9801-10000] [10001-10200] [10201-10400] [10401-10600] [10601-10800] [10801-11000] [11001-11200] [11201-11400] [11401-11600] [11601-11800] [11801-12000] [12001-12200] [12201-12400] [12401-12600] [12601-12800] [12801-13000] [13001-13200] [13201-13400] [13401-13600] [13601-13800] [13801-14000] [14001-14200] [14201-14400] [14401-14600] [14601-14800] [14801-15000] [15001-15200] [15201-15400] [15401-15600] [15601-15800] [15801-16000] [16001-16200] [16201-16400] [16401-16600] [16601-16800] [16801-17000] [17001-17200] [17201-17400] [17401-17600] [17601-17800] [17801-18000] [18001-18200] [18201-18400] [18401-18600] [18601-18800] [18801-19000] [19001-19200] [19201-19400] [19401-19600] [19601-19800] [19801-20000] [20001-20200] [20201-20400] [20401-20600] [20601-20800] [20801-21000] [21001-21200] [21201-21400] [21401-21600] [21601-21800] [21801-22000] [22001-22200] [22201-22400] [22401-22600] [22601-22800] [22801-23000] [23001-23200] [23201-23400] [23401-23600] [23601-23800] [23801-24000] [24001-24200] [24201-24400] [24401-24600] [24601-24800] [24801-25000] [25001-25200] [25201-25400] [25401-25600] [25601-25800] [25801-26000] [26001-26200] [26201-26400] [26401-26600] [26601-26800] [26801-27000] [27001-27200] [27201-27400] [27401-27600] [27601-27800] [27801-28000] [28001-28200] [28201-28400] [28401-28600] [28601-28800] [28801-29000] [29001-29200] [29201-29400] [29401-29600] [29601-29800] [29801-30000] [30001-30200] [30201-30400] [30401-30600] [30601-30800] [30801-31000] [31001-31200] [31201-31400] [31401-31600] [31601-31800] [31801-32000] [32001-32200] [32201-32400] [32401-32600] [32601-32800] [32801-33000] [33001-33200] [33201-33400] [33401-33600] [33601-33800] [33801-34000] [34001-34200] [34201-34400] [34401-34600] [34601-34800] [34801-35000] [35001-35200] [35201-35400] [35401-35600] [35601-35800] [35801-36000] [36001-36200] [36201-36400] [36401-36600] [36601-36800] [36801-37000] [37001-37200] [37201-37400] [37401-37600] [37601-37800] [37801-38000] [38001-38200] [38201-38400] [38401-38600] [38601-38800] [38801-39000] [39001-39200] [39201-39400] [39401-39600] [39601-39800] [39801-40000] [40001-40200] [40201-40400] [40401-40600] [40601-40800] [40801-41000] [41001-41200] [41201-41400] [41401-41600] [41601-41800] [41801-42000] [42001-42200] [42201-42400] [42401-42600] [42601-42800] [42801-43000] [43001-43200] [43201-43400] [43401-43600] [43601-43800] [43801-44000] [44001-44200] [44201-44400] [44401-44600] [44601-44800] [44801-45000] [45001-45200] [45201-45400] [45401-45600] [45601-45800] [45801-46000] [46001-46200] [46201-46400] [46401-46600] [46601-46800] [46801-47000] [47001-47200] [47201-47400] [47401-47600] [47601-47800] [47801-48000] [48001-48200] [48201-48400] [48401-48600] [48601-48800] [48801-49000] [49001-49200] [49201-49400] [49401-49600] [49601-49800] [49801-50000] [50001-50200] [50201-50388]